sensor_id;sensor_type;location;lat;lon;timestamp;P1;durP1;ratioP1;P2;durP2;ratioP2
47429;SDS011;33181;49.246;7.372;2023-10-19T00:00:39;28.43;;;19.93;;
47429;SDS011;33181;49.246;7.372;2023-10-19T00:03:09;24.73;;;18.87;;
47429;SDS011;33181;49.246;7.372;2023-10-19T00:05:36;36.53;;;21.47;;
47429;SDS011;33181;49.246;7.372;2023-10-19T00:08:03;32.10;;;22.67;;
47429;SDS011;33181;49.246;7.372;2023-10-19T00:10:47;30.30;;;21.30;;
47429;SDS011;33181;49.246;7.372;2023-10-19T00:13:19;29.43;;;20.43;;
47429;SDS011;33181;49.246;7.372;2023-10-19T00:15:44;32.60;;;21.10;;
47429;SDS011;33181;49.246;7.372;2023-10-19T00:18:14;30.90;;;22.60;;
47429;SDS011;33181;49.246;7.372;2023-10-19T00:20:44;34.40;;;23.00;;
47429;SDS011;33181;49.246;7.372;2023-10-19T00:23:13;32.10;;;22.10;;
47429;SDS011;33181;49.246;7.372;2023-10-19T00:25:43;32.87;;;23.93;;
47429;SDS011;33181;49.246;7.372;2023-10-19T00:28:15;33.73;;;23.43;;
47429;SDS011;33181;49.246;7.372;2023-10-19T00:30:44;34.27;;;23.63;;
47429;SDS011;33181;49.246;7.372;2023-10-19T00:33:16;36.20;;;23.20;;
47429;SDS011;33181;49.246;7.372;2023-10-19T00:35:45;36.90;;;22.60;;
47429;SDS011;33181;49.246;7.372;2023-10-19T00:38:12;32.60;;;23.00;;
47429;SDS011;33181;49.246;7.372;2023-10-19T00:40:55;34.80;;;22.03;;
47429;SDS011;33181;49.246;7.372;2023-10-19T00:43:34;32.80;;;22.67;;
47429;SDS011;33181;49.246;7.372;2023-10-19T00:46:10;34.73;;;22.67;;
47429;SDS011;33181;49.246;7.372;2023-10-19T00:49:01;29.50;;;21.80;;
47429;SDS011;33181;49.246;7.372;2023-10-19T00:51:35;32.80;;;22.07;;
47429;SDS011;33181;49.246;7.372;2023-10-19T00:54:11;29.60;;;21.77;;
47429;SDS011;33181;49.246;7.372;2023-10-19T00:56:58;29.90;;;20.70;;
47429;SDS011;33181;49.246;7.372;2023-10-19T00:59:33;27.83;;;21.27;;
47429;SDS011;33181;49.246;7.372;2023-10-19T01:02:18;30.27;;;20.80;;
47429;SDS011;33181;49.246;7.372;2023-10-19T01:04:47;33.00;;;20.97;;
47429;SDS011;33181;49.246;7.372;2023-10-19T01:07:24;29.07;;;20.60;;
47429;SDS011;33181;49.246;7.372;2023-10-19T01:09:54;28.97;;;19.93;;
47429;SDS011;33181;49.246;7.372;2023-10-19T01:12:26;30.40;;;20.90;;
47429;SDS011;33181;49.246;7.372;2023-10-19T01:17:33;28.67;;;20.13;;
47429;SDS011;33181;49.246;7.372;2023-10-19T01:20:05;26.93;;;19.80;;
47429;SDS011;33181;49.246;7.372;2023-10-19T01:22:52;30.10;;;21.60;;
47429;SDS011;33181;49.246;7.372;2023-10-19T01:28:23;27.40;;;19.30;;
47429;SDS011;33181;49.246;7.372;2023-10-19T01:31:06;28.37;;;20.17;;
47429;SDS011;33181;49.246;7.372;2023-10-19T01:33:42;26.10;;;19.57;;
47429;SDS011;33181;49.246;7.372;2023-10-19T01:36:12;30.23;;;20.60;;
47429;SDS011;33181;49.246;7.372;2023-10-19T01:38:47;26.90;;;18.83;;
47429;SDS011;33181;49.246;7.372;2023-10-19T01:41:13;28.23;;;19.13;;
47429;SDS011;33181;49.246;7.372;2023-10-19T01:43:46;26.73;;;18.87;;
47429;SDS011;33181;49.246;7.372;2023-10-19T01:46:15;23.07;;;17.87;;
47429;SDS011;33181;49.246;7.372;2023-10-19T01:48:56;29.47;;;19.93;;
47429;SDS011;33181;49.246;7.372;2023-10-19T01:51:23;29.53;;;19.30;;
47429;SDS011;33181;49.246;7.372;2023-10-19T01:53:51;26.43;;;19.00;;
47429;SDS011;33181;49.246;7.372;2023-10-19T01:56:20;27.97;;;19.03;;
47429;SDS011;33181;49.246;7.372;2023-10-19T01:58:47;26.27;;;18.97;;
47429;SDS011;33181;49.246;7.372;2023-10-19T02:01:14;26.40;;;18.73;;
47429;SDS011;33181;49.246;7.372;2023-10-19T02:03:45;26.80;;;18.30;;
47429;SDS011;33181;49.246;7.372;2023-10-19T02:06:18;28.83;;;19.47;;
47429;SDS011;33181;49.246;7.372;2023-10-19T02:08:45;25.97;;;18.30;;
47429;SDS011;33181;49.246;7.372;2023-10-19T02:11:21;24.50;;;17.63;;
47429;SDS011;33181;49.246;7.372;2023-10-19T02:13:49;29.20;;;19.17;;
47429;SDS011;33181;49.246;7.372;2023-10-19T02:16:17;24.60;;;17.20;;
47429;SDS011;33181;49.246;7.372;2023-10-19T02:18:47;32.13;;;19.10;;
47429;SDS011;33181;49.246;7.372;2023-10-19T02:21:15;29.70;;;22.07;;
47429;SDS011;33181;49.246;7.372;2023-10-19T02:23:50;28.27;;;21.80;;
47429;SDS011;33181;49.246;7.372;2023-10-19T02:26:17;29.63;;;19.90;;
47429;SDS011;33181;49.246;7.372;2023-10-19T02:28:45;27.60;;;19.80;;
47429;SDS011;33181;49.246;7.372;2023-10-19T02:31:12;25.40;;;18.43;;
47429;SDS011;33181;49.246;7.372;2023-10-19T02:33:41;26.07;;;18.57;;
47429;SDS011;33181;49.246;7.372;2023-10-19T02:36:14;30.17;;;19.47;;
47429;SDS011;33181;49.246;7.372;2023-10-19T02:38:41;29.17;;;19.97;;
47429;SDS011;33181;49.246;7.372;2023-10-19T02:41:13;26.20;;;18.17;;
47429;SDS011;33181;49.246;7.372;2023-10-19T02:43:44;25.50;;;17.97;;
47429;SDS011;33181;49.246;7.372;2023-10-19T02:46:12;28.70;;;20.40;;
47429;SDS011;33181;49.246;7.372;2023-10-19T02:48:39;27.07;;;18.50;;
47429;SDS011;33181;49.246;7.372;2023-10-19T02:51:12;29.70;;;19.10;;
47429;SDS011;33181;49.246;7.372;2023-10-19T02:53:41;23.70;;;16.87;;
47429;SDS011;33181;49.246;7.372;2023-10-19T02:56:14;25.87;;;19.07;;
47429;SDS011;33181;49.246;7.372;2023-10-19T02:58:49;29.70;;;20.20;;
47429;SDS011;33181;49.246;7.372;2023-10-19T03:01:16;31.03;;;20.33;;
47429;SDS011;33181;49.246;7.372;2023-10-19T03:03:50;29.87;;;19.90;;
47429;SDS011;33181;49.246;7.372;2023-10-19T03:06:22;27.37;;;18.30;;
47429;SDS011;33181;49.246;7.372;2023-10-19T03:08:48;26.40;;;19.20;;
47429;SDS011;33181;49.246;7.372;2023-10-19T03:11:29;25.77;;;17.60;;
47429;SDS011;33181;49.246;7.372;2023-10-19T03:13:57;24.70;;;16.40;;
47429;SDS011;33181;49.246;7.372;2023-10-19T03:16:23;29.83;;;19.30;;
47429;SDS011;33181;49.246;7.372;2023-10-19T03:18:50;24.13;;;17.60;;
47429;SDS011;33181;49.246;7.372;2023-10-19T03:21:16;26.70;;;18.50;;
47429;SDS011;33181;49.246;7.372;2023-10-19T03:23:46;28.17;;;19.43;;
47429;SDS011;33181;49.246;7.372;2023-10-19T03:26:12;24.33;;;16.87;;
47429;SDS011;33181;49.246;7.372;2023-10-19T03:29:01;30.43;;;19.03;;
47429;SDS011;33181;49.246;7.372;2023-10-19T03:31:37;28.70;;;18.43;;
47429;SDS011;33181;49.246;7.372;2023-10-19T03:34:08;22.73;;;16.87;;
47429;SDS011;33181;49.246;7.372;2023-10-19T03:36:38;26.17;;;18.10;;
47429;SDS011;33181;49.246;7.372;2023-10-19T03:39:05;29.53;;;17.20;;
47429;SDS011;33181;49.246;7.372;2023-10-19T03:41:38;26.40;;;18.67;;
47429;SDS011;33181;49.246;7.372;2023-10-19T03:44:07;26.10;;;18.17;;
47429;SDS011;33181;49.246;7.372;2023-10-19T03:46:49;27.50;;;18.30;;
47429;SDS011;33181;49.246;7.372;2023-10-19T03:49:18;23.87;;;16.47;;
47429;SDS011;33181;49.246;7.372;2023-10-19T03:51:46;26.37;;;17.67;;
47429;SDS011;33181;49.246;7.372;2023-10-19T03:54:26;25.97;;;18.50;;
47429;SDS011;33181;49.246;7.372;2023-10-19T03:56:53;25.43;;;17.57;;
47429;SDS011;33181;49.246;7.372;2023-10-19T03:59:26;29.40;;;16.80;;
47429;SDS011;33181;49.246;7.372;2023-10-19T04:01:58;26.40;;;18.73;;
47429;SDS011;33181;49.246;7.372;2023-10-19T04:04:25;24.73;;;17.10;;
47429;SDS011;33181;49.246;7.372;2023-10-19T04:06:55;27.87;;;17.57;;
47429;SDS011;33181;49.246;7.372;2023-10-19T04:09:24;20.70;;;14.93;;
47429;SDS011;33181;49.246;7.372;2023-10-19T04:11:57;23.20;;;15.40;;
47429;SDS011;33181;49.246;7.372;2023-10-19T04:14:22;25.00;;;16.60;;
47429;SDS011;33181;49.246;7.372;2023-10-19T04:16:48;25.97;;;16.47;;
47429;SDS011;33181;49.246;7.372;2023-10-19T04:19:15;22.93;;;16.00;;
47429;SDS011;33181;49.246;7.372;2023-10-19T04:21:41;21.60;;;14.70;;
47429;SDS011;33181;49.246;7.372;2023-10-19T04:24:11;22.50;;;15.10;;
47429;SDS011;33181;49.246;7.372;2023-10-19T04:26:42;22.23;;;14.83;;
47429;SDS011;33181;49.246;7.372;2023-10-19T04:29:08;23.57;;;16.40;;
47429;SDS011;33181;49.246;7.372;2023-10-19T04:31:38;22.87;;;14.70;;
47429;SDS011;33181;49.246;7.372;2023-10-19T04:34:24;22.40;;;13.10;;
47429;SDS011;33181;49.246;7.372;2023-10-19T04:36:50;18.97;;;13.30;;
47429;SDS011;33181;49.246;7.372;2023-10-19T04:39:17;21.70;;;14.73;;
47429;SDS011;33181;49.246;7.372;2023-10-19T04:41:44;19.23;;;13.63;;
47429;SDS011;33181;49.246;7.372;2023-10-19T04:44:13;22.03;;;13.90;;
47429;SDS011;33181;49.246;7.372;2023-10-19T04:46:40;21.30;;;13.30;;
47429;SDS011;33181;49.246;7.372;2023-10-19T04:49:06;17.37;;;12.80;;
47429;SDS011;33181;49.246;7.372;2023-10-19T04:51:32;22.13;;;15.27;;
47429;SDS011;33181;49.246;7.372;2023-10-19T04:54:01;23.10;;;14.90;;
47429;SDS011;33181;49.246;7.372;2023-10-19T04:56:27;22.93;;;14.07;;
47429;SDS011;33181;49.246;7.372;2023-10-19T04:58:53;22.57;;;13.07;;
47429;SDS011;33181;49.246;7.372;2023-10-19T05:01:19;23.60;;;14.60;;
47429;SDS011;33181;49.246;7.372;2023-10-19T05:03:44;22.80;;;13.37;;
47429;SDS011;33181;49.246;7.372;2023-10-19T05:06:10;19.00;;;12.33;;
47429;SDS011;33181;49.246;7.372;2023-10-19T05:08:37;18.90;;;12.00;;
47429;SDS011;33181;49.246;7.372;2023-10-19T05:11:03;20.03;;;12.70;;
47429;SDS011;33181;49.246;7.372;2023-10-19T05:13:30;18.30;;;13.73;;
47429;SDS011;33181;49.246;7.372;2023-10-19T05:15:57;20.50;;;12.60;;
47429;SDS011;33181;49.246;7.372;2023-10-19T05:18:27;19.13;;;11.50;;
47429;SDS011;33181;49.246;7.372;2023-10-19T05:20:52;17.40;;;11.47;;
47429;SDS011;33181;49.246;7.372;2023-10-19T05:23:24;19.43;;;12.20;;
47429;SDS011;33181;49.246;7.372;2023-10-19T05:25:52;21.10;;;13.47;;
47429;SDS011;33181;49.246;7.372;2023-10-19T05:28:27;19.10;;;13.77;;
47429;SDS011;33181;49.246;7.372;2023-10-19T05:30:53;16.17;;;12.20;;
47429;SDS011;33181;49.246;7.372;2023-10-19T05:33:19;18.20;;;13.33;;
47429;SDS011;33181;49.246;7.372;2023-10-19T05:35:49;20.03;;;13.43;;
47429;SDS011;33181;49.246;7.372;2023-10-19T05:38:16;20.87;;;12.67;;
47429;SDS011;33181;49.246;7.372;2023-10-19T05:40:44;17.77;;;11.30;;
47429;SDS011;33181;49.246;7.372;2023-10-19T05:43:10;17.17;;;11.57;;
47429;SDS011;33181;49.246;7.372;2023-10-19T05:45:37;17.77;;;11.20;;
47429;SDS011;33181;49.246;7.372;2023-10-19T05:48:04;16.20;;;11.30;;
47429;SDS011;33181;49.246;7.372;2023-10-19T05:50:31;18.43;;;10.60;;
47429;SDS011;33181;49.246;7.372;2023-10-19T05:52:59;18.50;;;10.97;;
47429;SDS011;33181;49.246;7.372;2023-10-19T05:55:25;21.70;;;12.20;;
47429;SDS011;33181;49.246;7.372;2023-10-19T05:57:51;14.60;;;9.90;;
47429;SDS011;33181;49.246;7.372;2023-10-19T06:00:19;15.47;;;10.50;;
47429;SDS011;33181;49.246;7.372;2023-10-19T06:02:46;21.93;;;12.03;;
47429;SDS011;33181;49.246;7.372;2023-10-19T06:05:16;15.03;;;9.90;;
47429;SDS011;33181;49.246;7.372;2023-10-19T06:07:48;12.30;;;9.17;;
47429;SDS011;33181;49.246;7.372;2023-10-19T06:10:18;14.40;;;9.90;;
47429;SDS011;33181;49.246;7.372;2023-10-19T06:12:47;14.20;;;9.60;;
47429;SDS011;33181;49.246;7.372;2023-10-19T06:15:15;17.30;;;10.10;;
47429;SDS011;33181;49.246;7.372;2023-10-19T06:17:43;15.37;;;9.17;;
47429;SDS011;33181;49.246;7.372;2023-10-19T06:20:10;13.80;;;9.23;;
47429;SDS011;33181;49.246;7.372;2023-10-19T06:22:55;14.83;;;9.00;;
47429;SDS011;33181;49.246;7.372;2023-10-19T06:25:29;17.30;;;9.40;;
47429;SDS011;33181;49.246;7.372;2023-10-19T06:27:56;12.30;;;9.37;;
47429;SDS011;33181;49.246;7.372;2023-10-19T06:30:23;21.87;;;11.43;;
47429;SDS011;33181;49.246;7.372;2023-10-19T06:32:52;15.83;;;10.57;;
47429;SDS011;33181;49.246;7.372;2023-10-19T06:35:21;13.57;;;10.00;;
47429;SDS011;33181;49.246;7.372;2023-10-19T06:37:48;21.93;;;12.07;;
47429;SDS011;33181;49.246;7.372;2023-10-19T06:40:15;19.63;;;12.77;;
47429;SDS011;33181;49.246;7.372;2023-10-19T06:42:42;19.93;;;11.53;;
47429;SDS011;33181;49.246;7.372;2023-10-19T06:45:12;21.50;;;12.53;;
47429;SDS011;33181;49.246;7.372;2023-10-19T06:47:42;17.73;;;11.60;;
47429;SDS011;33181;49.246;7.372;2023-10-19T06:50:13;15.83;;;12.07;;
47429;SDS011;33181;49.246;7.372;2023-10-19T06:52:44;16.40;;;12.53;;
47429;SDS011;33181;49.246;7.372;2023-10-19T06:55:12;18.70;;;12.50;;
47429;SDS011;33181;49.246;7.372;2023-10-19T06:57:41;21.90;;;14.23;;
47429;SDS011;33181;49.246;7.372;2023-10-19T07:00:09;18.30;;;11.97;;
47429;SDS011;33181;49.246;7.372;2023-10-19T07:02:43;20.43;;;12.40;;
47429;SDS011;33181;49.246;7.372;2023-10-19T07:05:09;16.30;;;12.10;;
47429;SDS011;33181;49.246;7.372;2023-10-19T07:07:37;19.70;;;13.67;;
47429;SDS011;33181;49.246;7.372;2023-10-19T07:10:06;29.83;;;16.83;;
47429;SDS011;33181;49.246;7.372;2023-10-19T07:12:35;22.53;;;14.37;;
47429;SDS011;33181;49.246;7.372;2023-10-19T07:15:02;23.93;;;13.83;;
47429;SDS011;33181;49.246;7.372;2023-10-19T07:17:38;23.43;;;16.07;;
47429;SDS011;33181;49.246;7.372;2023-10-19T07:20:08;23.37;;;15.00;;
47429;SDS011;33181;49.246;7.372;2023-10-19T07:22:58;33.03;;;19.40;;
47429;SDS011;33181;49.246;7.372;2023-10-19T07:25:46;25.10;;;15.90;;
47429;SDS011;33181;49.246;7.372;2023-10-19T07:28:18;26.97;;;16.00;;
47429;SDS011;33181;49.246;7.372;2023-10-19T07:30:44;21.87;;;15.87;;
47429;SDS011;33181;49.246;7.372;2023-10-19T07:33:16;24.93;;;16.17;;
47429;SDS011;33181;49.246;7.372;2023-10-19T07:35:42;27.43;;;16.10;;
47429;SDS011;33181;49.246;7.372;2023-10-19T07:38:12;25.23;;;17.33;;
47429;SDS011;33181;49.246;7.372;2023-10-19T07:40:39;23.70;;;16.10;;
47429;SDS011;33181;49.246;7.372;2023-10-19T07:43:05;22.83;;;15.17;;
47429;SDS011;33181;49.246;7.372;2023-10-19T07:45:31;26.87;;;16.50;;
47429;SDS011;33181;49.246;7.372;2023-10-19T07:47:59;29.20;;;18.60;;
47429;SDS011;33181;49.246;7.372;2023-10-19T07:50:31;26.37;;;15.90;;
47429;SDS011;33181;49.246;7.372;2023-10-19T07:53:01;22.57;;;15.90;;
47429;SDS011;33181;49.246;7.372;2023-10-19T07:55:28;31.77;;;19.50;;
47429;SDS011;33181;49.246;7.372;2023-10-19T07:57:56;28.57;;;18.97;;
47429;SDS011;33181;49.246;7.372;2023-10-19T08:00:25;28.33;;;18.80;;
47429;SDS011;33181;49.246;7.372;2023-10-19T08:02:52;30.63;;;19.20;;
47429;SDS011;33181;49.246;7.372;2023-10-19T08:05:21;29.83;;;19.50;;
47429;SDS011;33181;49.246;7.372;2023-10-19T08:07:47;29.07;;;18.80;;
47429;SDS011;33181;49.246;7.372;2023-10-19T08:10:14;28.00;;;20.00;;
47429;SDS011;33181;49.246;7.372;2023-10-19T08:12:42;29.33;;;18.10;;
47429;SDS011;33181;49.246;7.372;2023-10-19T08:15:12;26.23;;;16.83;;
47429;SDS011;33181;49.246;7.372;2023-10-19T08:17:43;31.97;;;19.83;;
47429;SDS011;33181;49.246;7.372;2023-10-19T08:20:12;30.73;;;18.90;;
47429;SDS011;33181;49.246;7.372;2023-10-19T08:22:48;31.27;;;18.80;;
47429;SDS011;33181;49.246;7.372;2023-10-19T08:25:17;24.43;;;17.07;;
47429;SDS011;33181;49.246;7.372;2023-10-19T08:27:44;22.73;;;15.13;;
47429;SDS011;33181;49.246;7.372;2023-10-19T08:30:20;19.90;;;14.70;;
47429;SDS011;33181;49.246;7.372;2023-10-19T08:32:46;23.73;;;15.47;;
47429;SDS011;33181;49.246;7.372;2023-10-19T08:35:16;27.70;;;15.80;;
47429;SDS011;33181;49.246;7.372;2023-10-19T08:37:46;17.77;;;13.00;;
47429;SDS011;33181;49.246;7.372;2023-10-19T08:40:13;20.97;;;11.27;;
47429;SDS011;33181;49.246;7.372;2023-10-19T08:42:43;15.37;;;11.40;;
47429;SDS011;33181;49.246;7.372;2023-10-19T08:45:13;17.37;;;11.37;;
47429;SDS011;33181;49.246;7.372;2023-10-19T08:47:48;15.27;;;10.70;;
47429;SDS011;33181;49.246;7.372;2023-10-19T08:50:26;16.13;;;10.50;;
47429;SDS011;33181;49.246;7.372;2023-10-19T08:52:57;12.93;;;9.40;;
47429;SDS011;33181;49.246;7.372;2023-10-19T08:55:25;15.30;;;8.93;;
47429;SDS011;33181;49.246;7.372;2023-10-19T08:57:52;13.63;;;8.77;;
47429;SDS011;33181;49.246;7.372;2023-10-19T09:00:18;14.33;;;7.93;;
47429;SDS011;33181;49.246;7.372;2023-10-19T09:02:50;12.90;;;8.10;;
47429;SDS011;33181;49.246;7.372;2023-10-19T09:05:17;14.00;;;7.13;;
47429;SDS011;33181;49.246;7.372;2023-10-19T09:07:50;10.97;;;7.10;;
47429;SDS011;33181;49.246;7.372;2023-10-19T09:10:20;9.80;;;6.50;;
47429;SDS011;33181;49.246;7.372;2023-10-19T09:13:00;7.57;;;6.03;;
47429;SDS011;33181;49.246;7.372;2023-10-19T09:15:28;10.37;;;6.80;;
47429;SDS011;33181;49.246;7.372;2023-10-19T09:17:57;10.73;;;7.23;;
47429;SDS011;33181;49.246;7.372;2023-10-19T09:20:36;9.40;;;6.57;;
47429;SDS011;33181;49.246;7.372;2023-10-19T09:23:02;11.00;;;6.90;;
47429;SDS011;33181;49.246;7.372;2023-10-19T09:25:28;11.77;;;5.40;;
47429;SDS011;33181;49.246;7.372;2023-10-19T09:27:54;6.70;;;5.00;;
47429;SDS011;33181;49.246;7.372;2023-10-19T09:30:20;8.10;;;5.60;;
47429;SDS011;33181;49.246;7.372;2023-10-19T09:32:48;8.33;;;4.70;;
47429;SDS011;33181;49.246;7.372;2023-10-19T09:35:17;8.10;;;4.70;;
47429;SDS011;33181;49.246;7.372;2023-10-19T09:37:44;9.70;;;4.47;;
47429;SDS011;33181;49.246;7.372;2023-10-19T09:40:10;9.27;;;4.10;;
47429;SDS011;33181;49.246;7.372;2023-10-19T09:42:39;6.30;;;4.20;;
47429;SDS011;33181;49.246;7.372;2023-10-19T09:45:11;7.07;;;3.93;;
47429;SDS011;33181;49.246;7.372;2023-10-19T09:47:41;5.10;;;4.00;;
47429;SDS011;33181;49.246;7.372;2023-10-19T09:50:13;6.00;;;3.50;;
47429;SDS011;33181;49.246;7.372;2023-10-19T09:52:39;6.10;;;3.80;;
47429;SDS011;33181;49.246;7.372;2023-10-19T09:57:42;5.80;;;3.63;;
47429;SDS011;33181;49.246;7.372;2023-10-19T10:00:17;5.47;;;3.70;;
47429;SDS011;33181;49.246;7.372;2023-10-19T10:02:48;5.97;;;3.40;;
47429;SDS011;33181;49.246;7.372;2023-10-19T10:10:46;6.67;;;3.97;;
47429;SDS011;33181;49.246;7.372;2023-10-19T10:15:49;7.97;;;4.40;;
47429;SDS011;33181;49.246;7.372;2023-10-19T10:18:20;8.37;;;4.50;;
47429;SDS011;33181;49.246;7.372;2023-10-19T10:26:56;7.70;;;3.60;;
47429;SDS011;33181;49.246;7.372;2023-10-19T10:29:25;5.20;;;3.67;;
47429;SDS011;33181;49.246;7.372;2023-10-19T10:31:53;7.07;;;3.50;;
47429;SDS011;33181;49.246;7.372;2023-10-19T10:37:06;5.50;;;3.60;;
47429;SDS011;33181;49.246;7.372;2023-10-19T10:39:34;6.37;;;3.87;;
47429;SDS011;33181;49.246;7.372;2023-10-19T10:42:02;5.90;;;3.77;;
47429;SDS011;33181;49.246;7.372;2023-10-19T10:44:55;7.50;;;4.03;;
47429;SDS011;33181;49.246;7.372;2023-10-19T10:47:21;5.33;;;3.83;;
47429;SDS011;33181;49.246;7.372;2023-10-19T10:49:54;5.53;;;3.90;;
47429;SDS011;33181;49.246;7.372;2023-10-19T10:52:25;8.70;;;4.20;;
47429;SDS011;33181;49.246;7.372;2023-10-19T10:57:37;10.60;;;3.90;;
47429;SDS011;33181;49.246;7.372;2023-10-19T11:00:11;11.10;;;4.00;;
47429;SDS011;33181;49.246;7.372;2023-10-19T11:02:42;10.57;;;3.90;;
47429;SDS011;33181;49.246;7.372;2023-10-19T11:05:11;6.40;;;3.60;;
47429;SDS011;33181;49.246;7.372;2023-10-19T11:07:39;10.33;;;4.40;;
47429;SDS011;33181;49.246;7.372;2023-10-19T11:10:35;8.10;;;3.90;;
47429;SDS011;33181;49.246;7.372;2023-10-19T11:13:05;6.00;;;3.70;;
47429;SDS011;33181;49.246;7.372;2023-10-19T11:15:33;7.20;;;4.57;;
47429;SDS011;33181;49.246;7.372;2023-10-19T11:18:00;9.00;;;5.00;;
47429;SDS011;33181;49.246;7.372;2023-10-19T11:20:26;6.17;;;4.37;;
47429;SDS011;33181;49.246;7.372;2023-10-19T11:22:53;7.37;;;5.90;;
47429;SDS011;33181;49.246;7.372;2023-10-19T11:25:28;16.87;;;13.43;;
47429;SDS011;33181;49.246;7.372;2023-10-19T11:28:00;15.70;;;10.80;;
47429;SDS011;33181;49.246;7.372;2023-10-19T11:30:30;10.43;;;6.80;;
47429;SDS011;33181;49.246;7.372;2023-10-19T11:32:56;10.60;;;6.50;;
47429;SDS011;33181;49.246;7.372;2023-10-19T11:35:33;11.20;;;6.50;;
47429;SDS011;33181;49.246;7.372;2023-10-19T11:38:02;12.60;;;8.00;;
47429;SDS011;33181;49.246;7.372;2023-10-19T11:40:29;8.97;;;7.60;;
47429;SDS011;33181;49.246;7.372;2023-10-19T11:42:55;12.10;;;7.40;;
47429;SDS011;33181;49.246;7.372;2023-10-19T11:45:26;8.57;;;5.67;;
47429;SDS011;33181;49.246;7.372;2023-10-19T11:47:52;12.67;;;8.73;;
47429;SDS011;33181;49.246;7.372;2023-10-19T11:50:19;7.37;;;5.27;;
47429;SDS011;33181;49.246;7.372;2023-10-19T11:52:45;7.10;;;4.90;;
47429;SDS011;33181;49.246;7.372;2023-10-19T11:55:12;12.03;;;6.60;;
47429;SDS011;33181;49.246;7.372;2023-10-19T11:57:38;6.23;;;4.50;;
47429;SDS011;33181;49.246;7.372;2023-10-19T12:00:08;6.37;;;4.40;;
47429;SDS011;33181;49.246;7.372;2023-10-19T12:02:48;6.73;;;5.20;;
47429;SDS011;33181;49.246;7.372;2023-10-19T12:05:14;5.97;;;4.47;;
47429;SDS011;33181;49.246;7.372;2023-10-19T12:07:40;8.30;;;4.90;;
47429;SDS011;33181;49.246;7.372;2023-10-19T12:10:09;6.23;;;4.10;;
47429;SDS011;33181;49.246;7.372;2023-10-19T12:12:37;9.53;;;4.87;;
47429;SDS011;33181;49.246;7.372;2023-10-19T12:15:03;5.53;;;4.00;;
47429;SDS011;33181;49.246;7.372;2023-10-19T12:17:30;6.37;;;4.70;;
47429;SDS011;33181;49.246;7.372;2023-10-19T12:19:59;5.97;;;4.23;;
47429;SDS011;33181;49.246;7.372;2023-10-19T12:22:25;6.60;;;4.50;;
47429;SDS011;33181;49.246;7.372;2023-10-19T12:24:57;7.17;;;4.13;;
47429;SDS011;33181;49.246;7.372;2023-10-19T12:27:24;8.37;;;4.30;;
47429;SDS011;33181;49.246;7.372;2023-10-19T12:29:50;6.03;;;4.33;;
47429;SDS011;33181;49.246;7.372;2023-10-19T12:32:19;5.97;;;4.27;;
47429;SDS011;33181;49.246;7.372;2023-10-19T12:34:46;8.30;;;4.70;;
47429;SDS011;33181;49.246;7.372;2023-10-19T12:37:18;7.33;;;4.90;;
47429;SDS011;33181;49.246;7.372;2023-10-19T12:39:46;8.10;;;5.00;;
47429;SDS011;33181;49.246;7.372;2023-10-19T12:42:15;8.73;;;5.33;;
47429;SDS011;33181;49.246;7.372;2023-10-19T12:44:41;7.10;;;4.60;;
47429;SDS011;33181;49.246;7.372;2023-10-19T12:47:08;6.90;;;4.97;;
47429;SDS011;33181;49.246;7.372;2023-10-19T12:49:42;9.40;;;4.80;;
47429;SDS011;33181;49.246;7.372;2023-10-19T12:52:10;6.20;;;4.60;;
47429;SDS011;33181;49.246;7.372;2023-10-19T12:54:38;9.63;;;5.33;;
47429;SDS011;33181;49.246;7.372;2023-10-19T12:57:08;6.50;;;5.13;;
47429;SDS011;33181;49.246;7.372;2023-10-19T12:59:34;5.77;;;4.70;;
47429;SDS011;33181;49.246;7.372;2023-10-19T13:02:05;6.97;;;5.03;;
47429;SDS011;33181;49.246;7.372;2023-10-19T13:04:33;6.93;;;4.73;;
47429;SDS011;33181;49.246;7.372;2023-10-19T13:06:59;7.10;;;4.10;;
47429;SDS011;33181;49.246;7.372;2023-10-19T13:09:27;6.07;;;4.20;;
47429;SDS011;33181;49.246;7.372;2023-10-19T13:11:57;8.70;;;5.77;;
47429;SDS011;33181;49.246;7.372;2023-10-19T13:14:25;10.87;;;5.53;;
47429;SDS011;33181;49.246;7.372;2023-10-19T13:16:52;10.83;;;6.30;;
47429;SDS011;33181;49.246;7.372;2023-10-19T13:19:19;10.37;;;6.53;;
47429;SDS011;33181;49.246;7.372;2023-10-19T13:21:51;10.57;;;6.43;;
47429;SDS011;33181;49.246;7.372;2023-10-19T13:24:17;9.30;;;5.83;;
47429;SDS011;33181;49.246;7.372;2023-10-19T13:26:47;7.37;;;6.10;;
47429;SDS011;33181;49.246;7.372;2023-10-19T13:29:13;7.40;;;5.83;;
47429;SDS011;33181;49.246;7.372;2023-10-19T13:31:42;7.63;;;5.93;;
47429;SDS011;33181;49.246;7.372;2023-10-19T13:34:14;6.90;;;4.70;;
47429;SDS011;33181;49.246;7.372;2023-10-19T13:36:40;8.87;;;6.20;;
47429;SDS011;33181;49.246;7.372;2023-10-19T13:39:08;9.57;;;6.23;;
47429;SDS011;33181;49.246;7.372;2023-10-19T13:41:38;7.93;;;6.37;;
47429;SDS011;33181;49.246;7.372;2023-10-19T13:44:04;9.00;;;6.03;;
47429;SDS011;33181;49.246;7.372;2023-10-19T13:46:30;8.40;;;7.10;;
47429;SDS011;33181;49.246;7.372;2023-10-19T13:48:56;7.70;;;5.97;;
47429;SDS011;33181;49.246;7.372;2023-10-19T13:51:22;8.37;;;6.43;;
47429;SDS011;33181;49.246;7.372;2023-10-19T13:53:47;7.20;;;5.77;;
47429;SDS011;33181;49.246;7.372;2023-10-19T13:56:15;7.53;;;6.00;;
47429;SDS011;33181;49.246;7.372;2023-10-19T13:58:41;8.80;;;6.73;;
47429;SDS011;33181;49.246;7.372;2023-10-19T14:01:07;7.67;;;5.97;;
47429;SDS011;33181;49.246;7.372;2023-10-19T14:03:34;6.90;;;5.80;;
47429;SDS011;33181;49.246;7.372;2023-10-19T14:06:02;9.60;;;6.83;;
47429;SDS011;33181;49.246;7.372;2023-10-19T14:08:28;10.03;;;7.77;;
47429;SDS011;33181;49.246;7.372;2023-10-19T14:11:00;8.83;;;7.90;;
47429;SDS011;33181;49.246;7.372;2023-10-19T14:13:27;9.80;;;7.10;;
47429;SDS011;33181;49.246;7.372;2023-10-19T14:15:54;10.37;;;7.70;;
47429;SDS011;33181;49.246;7.372;2023-10-19T14:18:20;7.80;;;7.00;;
47429;SDS011;33181;49.246;7.372;2023-10-19T14:20:46;10.57;;;7.63;;
47429;SDS011;33181;49.246;7.372;2023-10-19T14:23:13;9.93;;;7.27;;
47429;SDS011;33181;49.246;7.372;2023-10-19T14:25:38;8.93;;;6.93;;
47429;SDS011;33181;49.246;7.372;2023-10-19T14:28:05;11.00;;;6.90;;
47429;SDS011;33181;49.246;7.372;2023-10-19T14:30:35;9.20;;;6.97;;
47429;SDS011;33181;49.246;7.372;2023-10-19T14:33:00;9.77;;;5.93;;
47429;SDS011;33181;49.246;7.372;2023-10-19T14:35:27;8.90;;;6.20;;
47429;SDS011;33181;49.246;7.372;2023-10-19T14:37:54;9.03;;;6.27;;
47429;SDS011;33181;49.246;7.372;2023-10-19T14:40:22;8.80;;;5.90;;
47429;SDS011;33181;49.246;7.372;2023-10-19T14:42:51;7.37;;;5.97;;
47429;SDS011;33181;49.246;7.372;2023-10-19T14:45:20;8.00;;;5.10;;
47429;SDS011;33181;49.246;7.372;2023-10-19T14:47:50;9.97;;;5.77;;
47429;SDS011;33181;49.246;7.372;2023-10-19T14:50:18;8.07;;;6.67;;
47429;SDS011;33181;49.246;7.372;2023-10-19T14:52:47;7.47;;;5.50;;
47429;SDS011;33181;49.246;7.372;2023-10-19T14:55:17;7.50;;;5.40;;
47429;SDS011;33181;49.246;7.372;2023-10-19T14:57:43;6.40;;;5.13;;
47429;SDS011;33181;49.246;7.372;2023-10-19T15:00:15;9.57;;;7.77;;
47429;SDS011;33181;49.246;7.372;2023-10-19T15:02:59;11.83;;;5.53;;
47429;SDS011;33181;49.246;7.372;2023-10-19T15:05:27;7.30;;;5.40;;
47429;SDS011;33181;49.246;7.372;2023-10-19T15:07:53;6.97;;;5.37;;
47429;SDS011;33181;49.246;7.372;2023-10-19T15:10:22;7.70;;;5.47;;
47429;SDS011;33181;49.246;7.372;2023-10-19T15:12:53;6.97;;;5.30;;